sensor_id;sensor_type;location;lat;lon;timestamp;P1;durP1;ratioP1;P2;durP2;ratioP2
24030;SDS011;12240;51.142;22.486;2023-07-31T00:01:22;11.30;;;3.75;;
24030;SDS011;12240;51.142;22.486;2023-07-31T00:03:50;6.22;;;3.25;;
24030;SDS011;12240;51.142;22.486;2023-07-31T00:06:20;7.30;;;2.65;;
24030;SDS011;12240;51.142;22.486;2023-07-31T00:08:49;6.07;;;3.10;;
24030;SDS011;12240;51.142;22.486;2023-07-31T00:11:17;7.18;;;2.95;;
24030;SDS011;12240;51.142;22.486;2023-07-31T00:13:45;9.07;;;3.00;;
24030;SDS011;12240;51.142;22.486;2023-07-31T00:16:13;10.93;;;3.38;;
24030;SDS011;12240;51.142;22.486;2023-07-31T00:18:42;10.35;;;3.05;;
24030;SDS011;12240;51.142;22.486;2023-07-31T00:21:10;7.43;;;3.22;;
24030;SDS011;12240;51.142;22.486;2023-07-31T00:23:38;7.75;;;3.25;;
24030;SDS011;12240;51.142;22.486;2023-07-31T00:26:06;4.97;;;3.03;;
24030;SDS011;12240;51.142;22.486;2023-07-31T00:28:34;7.03;;;3.35;;
24030;SDS011;12240;51.142;22.486;2023-07-31T00:31:03;5.43;;;3.10;;
24030;SDS011;12240;51.142;22.486;2023-07-31T00:33:31;6.18;;;3.15;;
24030;SDS011;12240;51.142;22.486;2023-07-31T00:36:03;8.23;;;3.13;;
24030;SDS011;12240;51.142;22.486;2023-07-31T00:38:31;10.40;;;3.55;;
24030;SDS011;12240;51.142;22.486;2023-07-31T00:40:59;9.52;;;3.08;;
24030;SDS011;12240;51.142;22.486;2023-07-31T00:43:27;4.82;;;2.92;;
24030;SDS011;12240;51.142;22.486;2023-07-31T00:45:55;10.00;;;2.97;;
24030;SDS011;12240;51.142;22.486;2023-07-31T00:48:24;7.22;;;3.10;;
24030;SDS011;12240;51.142;22.486;2023-07-31T00:50:55;6.77;;;3.17;;
24030;SDS011;12240;51.142;22.486;2023-07-31T00:53:24;7.07;;;2.90;;
24030;SDS011;12240;51.142;22.486;2023-07-31T00:55:52;7.55;;;3.40;;
24030;SDS011;12240;51.142;22.486;2023-07-31T00:58:21;11.13;;;3.17;;
24030;SDS011;12240;51.142;22.486;2023-07-31T01:00:49;6.95;;;3.53;;
24030;SDS011;12240;51.142;22.486;2023-07-31T01:03:18;12.90;;;3.80;;
24030;SDS011;12240;51.142;22.486;2023-07-31T01:06:00;8.32;;;3.35;;
24030;SDS011;12240;51.142;22.486;2023-07-31T01:11:35;6.07;;;3.40;;
24030;SDS011;12240;51.142;22.486;2023-07-31T01:14:15;8.43;;;3.22;;
24030;SDS011;12240;51.142;22.486;2023-07-31T01:16:43;7.45;;;3.35;;
24030;SDS011;12240;51.142;22.486;2023-07-31T01:19:11;11.95;;;3.25;;
24030;SDS011;12240;51.142;22.486;2023-07-31T01:21:51;7.72;;;3.20;;
24030;SDS011;12240;51.142;22.486;2023-07-31T01:27:37;4.55;;;3.00;;
24030;SDS011;12240;51.142;22.486;2023-07-31T01:30:16;14.93;;;3.53;;
24030;SDS011;12240;51.142;22.486;2023-07-31T01:32:52;5.93;;;3.55;;
24030;SDS011;12240;51.142;22.486;2023-07-31T01:35:23;6.25;;;3.45;;
24030;SDS011;12240;51.142;22.486;2023-07-31T01:37:52;7.78;;;3.33;;
24030;SDS011;12240;51.142;22.486;2023-07-31T01:40:21;6.25;;;3.50;;
24030;SDS011;12240;51.142;22.486;2023-07-31T01:42:49;6.32;;;2.92;;
24030;SDS011;12240;51.142;22.486;2023-07-31T01:45:17;8.15;;;3.47;;
24030;SDS011;12240;51.142;22.486;2023-07-31T01:47:46;8.95;;;3.28;;
24030;SDS011;12240;51.142;22.486;2023-07-31T01:50:14;4.88;;;2.88;;
24030;SDS011;12240;51.142;22.486;2023-07-31T01:52:42;13.40;;;3.45;;
24030;SDS011;12240;51.142;22.486;2023-07-31T01:55:11;7.03;;;2.92;;
24030;SDS011;12240;51.142;22.486;2023-07-31T01:57:39;5.57;;;2.85;;
24030;SDS011;12240;51.142;22.486;2023-07-31T02:00:07;12.15;;;3.15;;
24030;SDS011;12240;51.142;22.486;2023-07-31T02:02:39;5.78;;;2.95;;
24030;SDS011;12240;51.142;22.486;2023-07-31T02:05:07;7.20;;;3.03;;
24030;SDS011;12240;51.142;22.486;2023-07-31T02:07:37;6.75;;;2.97;;
24030;SDS011;12240;51.142;22.486;2023-07-31T02:10:05;7.55;;;2.88;;
24030;SDS011;12240;51.142;22.486;2023-07-31T02:12:35;8.20;;;2.92;;
24030;SDS011;12240;51.142;22.486;2023-07-31T02:15:03;5.22;;;3.15;;
24030;SDS011;12240;51.142;22.486;2023-07-31T02:17:32;9.25;;;3.65;;
24030;SDS011;12240;51.142;22.486;2023-07-31T02:20:00;9.02;;;3.17;;
24030;SDS011;12240;51.142;22.486;2023-07-31T02:22:28;6.03;;;3.10;;
24030;SDS011;12240;51.142;22.486;2023-07-31T02:24:56;5.85;;;3.38;;
24030;SDS011;12240;51.142;22.486;2023-07-31T02:27:25;6.50;;;3.47;;
24030;SDS011;12240;51.142;22.486;2023-07-31T02:29:54;9.27;;;3.38;;
24030;SDS011;12240;51.142;22.486;2023-07-31T02:32:23;12.48;;;3.17;;
24030;SDS011;12240;51.142;22.486;2023-07-31T02:34:51;9.23;;;2.97;;
24030;SDS011;12240;51.142;22.486;2023-07-31T02:37:19;4.65;;;3.03;;
24030;SDS011;12240;51.142;22.486;2023-07-31T02:39:48;5.60;;;3.00;;
24030;SDS011;12240;51.142;22.486;2023-07-31T02:42:16;5.70;;;3.05;;
24030;SDS011;12240;51.142;22.486;2023-07-31T02:44:44;4.88;;;2.70;;
24030;SDS011;12240;51.142;22.486;2023-07-31T02:47:12;10.30;;;3.20;;
24030;SDS011;12240;51.142;22.486;2023-07-31T02:49:40;4.22;;;2.78;;
24030;SDS011;12240;51.142;22.486;2023-07-31T02:52:08;8.32;;;3.13;;
24030;SDS011;12240;51.142;22.486;2023-07-31T02:54:37;6.03;;;2.88;;
24030;SDS011;12240;51.142;22.486;2023-07-31T02:57:05;11.68;;;3.20;;
24030;SDS011;12240;51.142;22.486;2023-07-31T02:59:33;6.70;;;3.03;;
24030;SDS011;12240;51.142;22.486;2023-07-31T03:02:02;11.85;;;3.10;;
24030;SDS011;12240;51.142;22.486;2023-07-31T03:04:30;5.60;;;2.70;;
24030;SDS011;12240;51.142;22.486;2023-07-31T03:06:58;5.20;;;2.40;;
24030;SDS011;12240;51.142;22.486;2023-07-31T03:09:26;7.47;;;2.42;;
24030;SDS011;12240;51.142;22.486;2023-07-31T03:11:55;4.82;;;2.47;;
24030;SDS011;12240;51.142;22.486;2023-07-31T03:14:23;6.10;;;2.40;;
24030;SDS011;12240;51.142;22.486;2023-07-31T03:16:54;5.35;;;2.35;;
24030;SDS011;12240;51.142;22.486;2023-07-31T03:19:23;5.15;;;2.28;;
24030;SDS011;12240;51.142;22.486;2023-07-31T03:21:51;3.95;;;2.47;;
24030;SDS011;12240;51.142;22.486;2023-07-31T03:24:19;4.18;;;2.22;;
24030;SDS011;12240;51.142;22.486;2023-07-31T03:26:47;5.13;;;2.38;;
24030;SDS011;12240;51.142;22.486;2023-07-31T03:29:15;4.38;;;2.50;;
24030;SDS011;12240;51.142;22.486;2023-07-31T03:31:43;4.63;;;2.30;;
24030;SDS011;12240;51.142;22.486;2023-07-31T03:34:12;3.70;;;2.30;;
24030;SDS011;12240;51.142;22.486;2023-07-31T03:36:40;7.88;;;2.50;;
24030;SDS011;12240;51.142;22.486;2023-07-31T03:39:12;7.18;;;2.13;;
24030;SDS011;12240;51.142;22.486;2023-07-31T03:41:40;5.13;;;2.17;;
24030;SDS011;12240;51.142;22.486;2023-07-31T03:44:08;5.00;;;2.67;;
24030;SDS011;12240;51.142;22.486;2023-07-31T03:46:36;4.80;;;2.53;;
24030;SDS011;12240;51.142;22.486;2023-07-31T03:49:06;3.80;;;2.45;;
24030;SDS011;12240;51.142;22.486;2023-07-31T03:51:34;10.85;;;3.00;;
24030;SDS011;12240;51.142;22.486;2023-07-31T03:54:03;14.57;;;3.03;;
24030;SDS011;12240;51.142;22.486;2023-07-31T03:56:31;9.93;;;2.47;;
24030;SDS011;12240;51.142;22.486;2023-07-31T03:59:02;10.98;;;2.58;;
24030;SDS011;12240;51.142;22.486;2023-07-31T04:01:30;4.55;;;2.17;;
24030;SDS011;12240;51.142;22.486;2023-07-31T04:03:58;3.67;;;2.10;;
24030;SDS011;12240;51.142;22.486;2023-07-31T04:06:26;4.70;;;2.15;;
24030;SDS011;12240;51.142;22.486;2023-07-31T04:08:54;3.40;;;2.33;;
24030;SDS011;12240;51.142;22.486;2023-07-31T04:11:22;6.88;;;2.47;;
24030;SDS011;12240;51.142;22.486;2023-07-31T04:13:51;5.68;;;2.50;;
24030;SDS011;12240;51.142;22.486;2023-07-31T04:16:19;9.15;;;2.60;;
24030;SDS011;12240;51.142;22.486;2023-07-31T04:18:47;8.88;;;2.50;;
24030;SDS011;12240;51.142;22.486;2023-07-31T04:21:15;5.70;;;2.38;;
24030;SDS011;12240;51.142;22.486;2023-07-31T04:23:43;3.03;;;2.10;;
24030;SDS011;12240;51.142;22.486;2023-07-31T04:26:11;3.97;;;1.80;;
24030;SDS011;12240;51.142;22.486;2023-07-31T04:28:39;4.43;;;2.42;;
24030;SDS011;12240;51.142;22.486;2023-07-31T04:31:07;8.35;;;2.53;;
24030;SDS011;12240;51.142;22.486;2023-07-31T04:33:36;3.72;;;2.30;;
24030;SDS011;12240;51.142;22.486;2023-07-31T04:36:04;4.72;;;2.10;;
24030;SDS011;12240;51.142;22.486;2023-07-31T04:38:33;2.55;;;1.92;;
24030;SDS011;12240;51.142;22.486;2023-07-31T04:41:01;3.47;;;2.10;;
24030;SDS011;12240;51.142;22.486;2023-07-31T04:43:29;3.47;;;2.25;;
24030;SDS011;12240;51.142;22.486;2023-07-31T04:45:57;3.13;;;2.10;;
24030;SDS011;12240;51.142;22.486;2023-07-31T04:48:25;3.50;;;2.30;;
24030;SDS011;12240;51.142;22.486;2023-07-31T04:50:54;4.82;;;2.35;;
24030;SDS011;12240;51.142;22.486;2023-07-31T04:53:22;7.90;;;2.40;;
24030;SDS011;12240;51.142;22.486;2023-07-31T04:55:50;4.57;;;2.03;;
24030;SDS011;12240;51.142;22.486;2023-07-31T04:58:19;6.85;;;2.03;;
24030;SDS011;12240;51.142;22.486;2023-07-31T05:00:47;3.55;;;2.25;;
24030;SDS011;12240;51.142;22.486;2023-07-31T05:03:15;3.35;;;2.15;;
24030;SDS011;12240;51.142;22.486;2023-07-31T05:05:43;3.45;;;2.50;;
24030;SDS011;12240;51.142;22.486;2023-07-31T05:08:11;3.72;;;2.35;;
24030;SDS011;12240;51.142;22.486;2023-07-31T05:10:39;6.15;;;2.00;;
24030;SDS011;12240;51.142;22.486;2023-07-31T05:13:07;7.40;;;2.22;;
24030;SDS011;12240;51.142;22.486;2023-07-31T05:15:36;4.95;;;2.13;;
24030;SDS011;12240;51.142;22.486;2023-07-31T05:18:04;8.30;;;2.35;;
24030;SDS011;12240;51.142;22.486;2023-07-31T05:20:32;8.90;;;2.30;;
24030;SDS011;12240;51.142;22.486;2023-07-31T05:23:00;4.18;;;2.33;;
24030;SDS011;12240;51.142;22.486;2023-07-31T05:25:29;4.30;;;2.40;;
24030;SDS011;12240;51.142;22.486;2023-07-31T05:27:57;5.22;;;2.35;;
24030;SDS011;12240;51.142;22.486;2023-07-31T05:30:25;5.60;;;2.40;;
24030;SDS011;12240;51.142;22.486;2023-07-31T05:32:57;3.83;;;2.33;;
24030;SDS011;12240;51.142;22.486;2023-07-31T05:37:53;4.97;;;2.38;;
24030;SDS011;12240;51.142;22.486;2023-07-31T05:40:21;4.45;;;2.47;;
24030;SDS011;12240;51.142;22.486;2023-07-31T05:42:49;4.15;;;2.75;;
24030;SDS011;12240;51.142;22.486;2023-07-31T05:45:18;4.55;;;2.17;;
24030;SDS011;12240;51.142;22.486;2023-07-31T05:47:47;5.32;;;2.58;;
24030;SDS011;12240;51.142;22.486;2023-07-31T05:50:15;7.22;;;2.60;;
24030;SDS011;12240;51.142;22.486;2023-07-31T05:52:43;5.90;;;2.30;;
24030;SDS011;12240;51.142;22.486;2023-07-31T05:55:11;4.07;;;2.55;;
24030;SDS011;12240;51.142;22.486;2023-07-31T05:57:40;3.25;;;2.35;;
24030;SDS011;12240;51.142;22.486;2023-07-31T06:00:08;4.70;;;2.63;;
24030;SDS011;12240;51.142;22.486;2023-07-31T06:02:37;4.50;;;2.03;;
24030;SDS011;12240;51.142;22.486;2023-07-31T06:05:05;4.55;;;2.45;;
24030;SDS011;12240;51.142;22.486;2023-07-31T06:07:34;3.55;;;2.40;;
24030;SDS011;12240;51.142;22.486;2023-07-31T06:10:03;8.18;;;2.63;;
24030;SDS011;12240;51.142;22.486;2023-07-31T06:12:33;6.25;;;2.72;;
24030;SDS011;12240;51.142;22.486;2023-07-31T06:15:02;4.25;;;2.35;;
24030;SDS011;12240;51.142;22.486;2023-07-31T06:17:31;3.58;;;2.00;;
24030;SDS011;12240;51.142;22.486;2023-07-31T06:20:00;7.53;;;2.75;;
24030;SDS011;12240;51.142;22.486;2023-07-31T06:22:29;4.80;;;2.42;;
24030;SDS011;12240;51.142;22.486;2023-07-31T06:24:57;5.90;;;2.55;;
24030;SDS011;12240;51.142;22.486;2023-07-31T06:27:26;5.80;;;2.50;;
24030;SDS011;12240;51.142;22.486;2023-07-31T06:29:54;5.18;;;2.63;;
24030;SDS011;12240;51.142;22.486;2023-07-31T06:32:22;6.68;;;2.30;;
24030;SDS011;12240;51.142;22.486;2023-07-31T06:34:51;4.25;;;2.40;;
24030;SDS011;12240;51.142;22.486;2023-07-31T06:37:19;6.25;;;2.60;;
24030;SDS011;12240;51.142;22.486;2023-07-31T06:39:48;4.57;;;2.53;;
24030;SDS011;12240;51.142;22.486;2023-07-31T06:42:16;3.55;;;2.55;;
24030;SDS011;12240;51.142;22.486;2023-07-31T06:44:44;5.03;;;2.25;;
24030;SDS011;12240;51.142;22.486;2023-07-31T06:47:12;6.45;;;2.38;;
24030;SDS011;12240;51.142;22.486;2023-07-31T06:49:40;4.97;;;2.50;;
24030;SDS011;12240;51.142;22.486;2023-07-31T06:52:09;3.83;;;2.33;;
24030;SDS011;12240;51.142;22.486;2023-07-31T06:54:38;8.18;;;2.60;;
24030;SDS011;12240;51.142;22.486;2023-07-31T06:57:06;4.63;;;2.17;;
24030;SDS011;12240;51.142;22.486;2023-07-31T06:59:35;6.78;;;2.92;;
24030;SDS011;12240;51.142;22.486;2023-07-31T07:02:03;5.15;;;2.10;;
24030;SDS011;12240;51.142;22.486;2023-07-31T07:04:33;5.50;;;2.33;;
24030;SDS011;12240;51.142;22.486;2023-07-31T07:07:01;5.43;;;2.15;;
24030;SDS011;12240;51.142;22.486;2023-07-31T07:09:30;4.30;;;2.03;;
24030;SDS011;12240;51.142;22.486;2023-07-31T07:11:58;5.15;;;2.30;;
24030;SDS011;12240;51.142;22.486;2023-07-31T07:14:26;6.45;;;2.33;;
24030;SDS011;12240;51.142;22.486;2023-07-31T07:16:55;7.25;;;2.20;;
24030;SDS011;12240;51.142;22.486;2023-07-31T07:19:23;3.90;;;2.35;;
24030;SDS011;12240;51.142;22.486;2023-07-31T07:21:51;4.10;;;2.10;;
24030;SDS011;12240;51.142;22.486;2023-07-31T07:24:19;3.92;;;2.03;;
24030;SDS011;12240;51.142;22.486;2023-07-31T07:26:48;3.72;;;2.42;;
24030;SDS011;12240;51.142;22.486;2023-07-31T07:29:16;2.92;;;2.00;;
24030;SDS011;12240;51.142;22.486;2023-07-31T07:31:44;4.18;;;2.30;;
24030;SDS011;12240;51.142;22.486;2023-07-31T07:34:12;3.63;;;2.13;;
24030;SDS011;12240;51.142;22.486;2023-07-31T07:36:40;5.57;;;2.13;;
24030;SDS011;12240;51.142;22.486;2023-07-31T07:39:10;5.13;;;2.17;;
24030;SDS011;12240;51.142;22.486;2023-07-31T07:41:38;7.30;;;2.30;;
24030;SDS011;12240;51.142;22.486;2023-07-31T07:44:07;3.92;;;2.10;;
24030;SDS011;12240;51.142;22.486;2023-07-31T07:46:36;3.13;;;2.13;;
24030;SDS011;12240;51.142;22.486;2023-07-31T07:49:04;4.88;;;2.00;;
24030;SDS011;12240;51.142;22.486;2023-07-31T07:51:33;7.68;;;2.13;;
24030;SDS011;12240;51.142;22.486;2023-07-31T07:54:01;7.05;;;2.20;;
24030;SDS011;12240;51.142;22.486;2023-07-31T07:56:29;3.25;;;2.10;;
24030;SDS011;12240;51.142;22.486;2023-07-31T07:58:58;4.32;;;1.90;;
24030;SDS011;12240;51.142;22.486;2023-07-31T08:01:26;2.75;;;1.95;;
24030;SDS011;12240;51.142;22.486;2023-07-31T08:03:54;3.40;;;1.95;;
24030;SDS011;12240;51.142;22.486;2023-07-31T08:06:22;4.88;;;2.13;;
24030;SDS011;12240;51.142;22.486;2023-07-31T08:08:51;4.15;;;2.00;;
24030;SDS011;12240;51.142;22.486;2023-07-31T08:11:20;5.60;;;2.00;;
24030;SDS011;12240;51.142;22.486;2023-07-31T08:13:50;6.40;;;1.93;;
24030;SDS011;12240;51.142;22.486;2023-07-31T08:16:18;3.03;;;1.92;;
24030;SDS011;12240;51.142;22.486;2023-07-31T08:18:46;5.70;;;2.10;;
24030;SDS011;12240;51.142;22.486;2023-07-31T08:21:16;3.78;;;2.15;;
24030;SDS011;12240;51.142;22.486;2023-07-31T08:23:44;6.13;;;1.83;;
24030;SDS011;12240;51.142;22.486;2023-07-31T08:26:16;3.92;;;2.25;;
24030;SDS011;12240;51.142;22.486;2023-07-31T08:28:46;5.07;;;1.83;;
24030;SDS011;12240;51.142;22.486;2023-07-31T08:31:14;4.88;;;2.00;;
24030;SDS011;12240;51.142;22.486;2023-07-31T08:33:43;5.45;;;2.30;;
24030;SDS011;12240;51.142;22.486;2023-07-31T08:36:12;11.60;;;2.00;;
24030;SDS011;12240;51.142;22.486;2023-07-31T08:38:40;4.75;;;2.30;;
24030;SDS011;12240;51.142;22.486;2023-07-31T08:41:09;4.60;;;2.05;;
24030;SDS011;12240;51.142;22.486;2023-07-31T08:43:37;4.13;;;2.20;;
24030;SDS011;12240;51.142;22.486;2023-07-31T08:46:06;3.53;;;1.98;;
24030;SDS011;12240;51.142;22.486;2023-07-31T08:48:36;3.30;;;1.77;;
24030;SDS011;12240;51.142;22.486;2023-07-31T08:51:06;2.93;;;1.77;;
24030;SDS011;12240;51.142;22.486;2023-07-31T08:53:34;4.80;;;1.83;;
24030;SDS011;12240;51.142;22.486;2023-07-31T08:56:03;3.65;;;1.83;;
24030;SDS011;12240;51.142;22.486;2023-07-31T08:58:33;4.63;;;1.70;;
24030;SDS011;12240;51.142;22.486;2023-07-31T09:03:34;3.10;;;1.80;;
24030;SDS011;12240;51.142;22.486;2023-07-31T09:06:05;2.58;;;1.90;;
24030;SDS011;12240;51.142;22.486;2023-07-31T09:08:34;3.70;;;1.80;;
24030;SDS011;12240;51.142;22.486;2023-07-31T09:11:03;4.80;;;2.22;;
24030;SDS011;12240;51.142;22.486;2023-07-31T09:13:32;4.75;;;1.73;;
24030;SDS011;12240;51.142;22.486;2023-07-31T09:16:00;4.57;;;2.20;;
24030;SDS011;12240;51.142;22.486;2023-07-31T09:18:29;5.60;;;2.28;;
24030;SDS011;12240;51.142;22.486;2023-07-31T09:21:03;4.82;;;1.98;;
24030;SDS011;12240;51.142;22.486;2023-07-31T09:23:43;3.67;;;1.95;;
24030;SDS011;12240;51.142;22.486;2023-07-31T09:26:28;4.35;;;1.70;;
24030;SDS011;12240;51.142;22.486;2023-07-31T09:29:05;9.60;;;2.20;;
24030;SDS011;12240;51.142;22.486;2023-07-31T09:31:45;3.70;;;2.00;;
24030;SDS011;12240;51.142;22.486;2023-07-31T09:34:14;8.27;;;1.92;;
24030;SDS011;12240;51.142;22.486;2023-07-31T09:36:43;3.53;;;2.13;;
24030;SDS011;12240;51.142;22.486;2023-07-31T09:39:12;8.07;;;1.85;;
24030;SDS011;12240;51.142;22.486;2023-07-31T09:41:47;3.47;;;1.55;;
24030;SDS011;12240;51.142;22.486;2023-07-31T09:44:39;4.30;;;2.10;;
24030;SDS011;12240;51.142;22.486;2023-07-31T09:47:21;3.22;;;1.90;;
24030;SDS011;12240;51.142;22.486;2023-07-31T09:49:52;2.72;;;1.70;;
24030;SDS011;12240;51.142;22.486;2023-07-31T09:52:21;6.75;;;1.90;;
24030;SDS011;12240;51.142;22.486;2023-07-31T09:54:49;5.57;;;1.77;;
24030;SDS011;12240;51.142;22.486;2023-07-31T09:57:17;4.15;;;2.15;;
24030;SDS011;12240;51.142;22.486;2023-07-31T09:59:49;2.50;;;1.70;;
24030;SDS011;12240;51.142;22.486;2023-07-31T10:02:21;5.97;;;1.83;;
24030;SDS011;12240;51.142;22.486;2023-07-31T10:04:52;3.65;;;1.88;;
24030;SDS011;12240;51.142;22.486;2023-07-31T10:07:27;4.60;;;1.85;;
24030;SDS011;12240;51.142;22.486;2023-07-31T10:09:59;3.40;;;1.73;;
24030;SDS011;12240;51.142;22.486;2023-07-31T10:12:33;5.00;;;2.10;;
24030;SDS011;12240;51.142;22.486;2023-07-31T10:15:02;6.57;;;2.38;;
24030;SDS011;12240;51.142;22.486;2023-07-31T10:17:32;3.13;;;1.73;;
24030;SDS011;12240;51.142;22.486;2023-07-31T10:20:03;5.75;;;1.65;;
24030;SDS011;12240;51.142;22.486;2023-07-31T10:22:34;3.75;;;2.17;;
24030;SDS011;12240;51.142;22.486;2023-07-31T10:25:03;2.88;;;1.75;;
24030;SDS011;12240;51.142;22.486;2023-07-31T10:27:35;4.45;;;1.70;;
24030;SDS011;12240;51.142;22.486;2023-07-31T10:30:05;2.42;;;1.88;;
24030;SDS011;12240;51.142;22.486;2023-07-31T10:35:17;3.63;;;1.70;;
24030;SDS011;12240;51.142;22.486;2023-07-31T10:37:46;2.63;;;1.52;;
24030;SDS011;12240;51.142;22.486;2023-07-31T10:40:18;3.10;;;1.55;;
24030;SDS011;12240;51.142;22.486;2023-07-31T10:45:33;5.25;;;1.60;;
24030;SDS011;12240;51.142;22.486;2023-07-31T10:48:13;6.28;;;1.95;;
24030;SDS011;12240;51.142;22.486;2023-07-31T10:50:50;4.20;;;1.80;;
24030;SDS011;12240;51.142;22.486;2023-07-31T10:53:37;7.53;;;1.60;;
24030;SDS011;12240;51.142;22.486;2023-07-31T10:56:08;2.65;;;1.50;;
24030;SDS011;12240;51.142;22.486;2023-07-31T10:58:43;3.20;;;1.60;;
24030;SDS011;12240;51.142;22.486;2023-07-31T11:01:13;4.35;;;1.67;;
24030;SDS011;12240;51.142;22.486;2023-07-31T11:03:42;2.15;;;1.38;;
24030;SDS011;12240;51.142;22.486;2023-07-31T11:06:16;3.50;;;1.50;;
24030;SDS011;12240;51.142;22.486;2023-07-31T11:08:50;3.38;;;1.70;;
24030;SDS011;12240;51.142;22.486;2023-07-31T11:11:19;5.13;;;1.75;;
24030;SDS011;12240;51.142;22.486;2023-07-31T11:13:51;3.22;;;1.58;;
24030;SDS011;12240;51.142;22.486;2023-07-31T11:16:24;2.92;;;1.83;;
24030;SDS011;12240;51.142;22.486;2023-07-31T11:18:53;4.45;;;1.60;;
24030;SDS011;12240;51.142;22.486;2023-07-31T11:21:24;4.40;;;1.58;;
24030;SDS011;12240;51.142;22.486;2023-07-31T11:23:57;3.53;;;1.58;;
24030;SDS011;12240;51.142;22.486;2023-07-31T11:26:26;5.43;;;1.95;;
24030;SDS011;12240;51.142;22.486;2023-07-31T11:28:55;2.25;;;1.42;;
24030;SDS011;12240;51.142;22.486;2023-07-31T11:31:23;2.72;;;1.40;;
24030;SDS011;12240;51.142;22.486;2023-07-31T11:34:03;9.30;;;1.95;;
24030;SDS011;12240;51.142;22.486;2023-07-31T11:39:07;4.72;;;1.63;;
24030;SDS011;12240;51.142;22.486;2023-07-31T11:41:40;4.53;;;1.38;;
24030;SDS011;12240;51.142;22.486;2023-07-31T11:44:09;2.78;;;1.45;;
24030;SDS011;12240;51.142;22.486;2023-07-31T11:46:56;3.35;;;1.40;;
24030;SDS011;12240;51.142;22.486;2023-07-31T11:51:53;2.17;;;1.40;;
24030;SDS011;12240;51.142;22.486;2023-07-31T11:54:22;3.78;;;1.50;;
24030;SDS011;12240;51.142;22.486;2023-07-31T11:56:50;5.40;;;1.58;;
24030;SDS011;12240;51.142;22.486;2023-07-31T11:59:18;6.05;;;2.20;;
24030;SDS011;12240;51.142;22.486;2023-07-31T12:01:46;6.90;;;1.88;;
24030;SDS011;12240;51.142;22.486;2023-07-31T12:06:49;6.63;;;1.50;;
24030;SDS011;12240;51.142;22.486;2023-07-31T12:09:22;2.22;;;1.67;;
24030;SDS011;12240;51.142;22.486;2023-07-31T12:11:51;3.30;;;1.60;;
24030;SDS011;12240;51.142;22.486;2023-07-31T12:14:22;6.35;;;1.52;;
24030;SDS011;12240;51.142;22.486;2023-07-31T12:16:54;3.10;;;1.63;;
24030;SDS011;12240;51.142;22.486;2023-07-31T12:19:32;9.60;;;1.70;;
24030;SDS011;12240;51.142;22.486;2023-07-31T12:22:01;3.40;;;1.60;;
24030;SDS011;12240;51.142;22.486;2023-07-31T12:24:30;4.15;;;1.50;;
24030;SDS011;12240;51.142;22.486;2023-07-31T12:27:07;2.88;;;1.35;;
24030;SDS011;12240;51.142;22.486;2023-07-31T12:29:43;3.90;;;1.50;;
24030;SDS011;12240;51.142;22.486;2023-07-31T12:32:21;2.92;;;1.60;;
24030;SDS011;12240;51.142;22.486;2023-07-31T12:34:52;4.05;;;1.90;;
24030;SDS011;12240;51.142;22.486;2023-07-31T12:37:21;3.08;;;1.50;;
24030;SDS011;12240;51.142;22.486;2023-07-31T12:39:50;5.10;;;1.67;;
24030;SDS011;12240;51.142;22.486;2023-07-31T12:42:18;7.53;;;1.75;;
24030;SDS011;12240;51.142;22.486;2023-07-31T12:44:46;3.35;;;1.92;;
24030;SDS011;12240;51.142;22.486;2023-07-31T12:47:15;3.75;;;1.70;;
24030;SDS011;12240;51.142;22.486;2023-07-31T12:49:43;4.55;;;1.40;;
24030;SDS011;12240;51.142;22.486;2023-07-31T12:52:11;4.65;;;2.10;;
24030;SDS011;12240;51.142;22.486;2023-07-31T12:54:40;2.45;;;1.98;;
24030;SDS011;12240;51.142;22.486;2023-07-31T12:57:08;3.78;;;1.67;;
24030;SDS011;12240;51.142;22.486;2023-07-31T12:59:36;4.88;;;1.50;;
24030;SDS011;12240;51.142;22.486;2023-07-31T13:02:04;6.25;;;1.75;;
24030;SDS011;12240;51.142;22.486;2023-07-31T13:04:33;3.97;;;1.20;;
24030;SDS011;12240;51.142;22.486;2023-07-31T13:07:01;4.53;;;1.70;;
24030;SDS011;12240;51.142;22.486;2023-07-31T13:09:30;6.43;;;1.42;;
24030;SDS011;12240;51.142;22.486;2023-07-31T13:11:58;7.95;;;1.65;;
24030;SDS011;12240;51.142;22.486;2023-07-31T13:14:26;4.40;;;1.70;;
24030;SDS011;12240;51.142;22.486;2023-07-31T13:16:55;3.20;;;2.00;;
24030;SDS011;12240;51.142;22.486;2023-07-31T13:19:24;4.20;;;1.75;;
24030;SDS011;12240;51.142;22.486;2023-07-31T13:21:52;3.67;;;1.63;;
24030;SDS011;12240;51.142;22.486;2023-07-31T13:24:20;3.03;;;1.48;;
24030;SDS011;12240;51.142;22.486;2023-07-31T13:26:49;6.20;;;1.80;;
24030;SDS011;12240;51.142;22.486;2023-07-31T13:29:17;5.75;;;1.92;;
24030;SDS011;12240;51.142;22.486;2023-07-31T13:31:45;6.70;;;1.80;;
24030;SDS011;12240;51.142;22.486;2023-07-31T13:34:14;1.77;;;1.48;;
24030;SDS011;12240;51.142;22.486;2023-07-31T13:36:42;3.63;;;1.77;;
24030;SDS011;12240;51.142;22.486;2023-07-31T13:39:11;4.47;;;1.98;;
24030;SDS011;12240;51.142;22.486;2023-07-31T13:41:39;2.85;;;1.58;;
24030;SDS011;12240;51.142;22.486;2023-07-31T13:44:07;3.80;;;1.65;;
24030;SDS011;12240;51.142;22.486;2023-07-31T13:46:35;3.47;;;1.67;;
24030;SDS011;12240;51.142;22.486;2023-07-31T13:49:04;4.32;;;1.52;;
24030;SDS011;12240;51.142;22.486;2023-07-31T13:51:33;2.88;;;1.48;;
24030;SDS011;12240;51.142;22.486;2023-07-31T13:54:01;2.55;;;1.33;;
24030;SDS011;12240;51.142;22.486;2023-07-31T13:56:29;1.95;;;0.75;;
24030;SDS011;12240;51.142;22.486;2023-07-31T13:58:58;4.00;;;1.60;;
24030;SDS011;12240;51.142;22.486;2023-07-31T14:01:28;6.22;;;1.50;;
24030;SDS011;12240;51.142;22.486;2023-07-31T14:03:56;5.22;;;1.90;;
24030;SDS011;12240;51.142;22.486;2023-07-31T14:06:25;3.10;;;1.23;;
24030;SDS011;12240;51.142;22.486;2023-07-31T14:08:53;5.00;;;1.40;;
24030;SDS011;12240;51.142;22.486;2023-07-31T14:11:22;5.97;;;2.03;;
24030;SDS011;12240;51.142;22.486;2023-07-31T14:13:51;2.78;;;1.50;;
24030;SDS011;12240;51.142;22.486;2023-07-31T14:16:20;1.88;;;1.23;;
24030;SDS011;12240;51.142;22.486;2023-07-31T14:18:49;3.30;;;1.30;;
24030;SDS011;12240;51.142;22.486;2023-07-31T14:21:18;4.82;;;1.60;;
24030;SDS011;12240;51.142;22.486;2023-07-31T14:23:47;3.80;;;1.40;;
24030;SDS011;12240;51.142;22.486;2023-07-31T14:26:15;3.70;;;1.40;;
24030;SDS011;12240;51.142;22.486;2023-07-31T14:28:44;2.83;;;1.42;;
24030;SDS011;12240;51.142;22.486;2023-07-31T14:31:12;2.83;;;1.38;;
24030;SDS011;12240;51.142;22.486;2023-07-31T14:33:40;6.32;;;1.55;;
24030;SDS011;12240;51.142;22.486;2023-07-31T14:36:09;4.32;;;1.60;;
24030;SDS011;12240;51.142;22.486;2023-07-31T14:38:37;4.85;;;1.50;;
24030;SDS011;12240;51.142;22.486;2023-07-31T14:41:05;3.50;;;1.60;;
24030;SDS011;12240;51.142;22.486;2023-07-31T14:43:33;5.82;;;1.58;;
24030;SDS011;12240;51.142;22.486;2023-07-31T14:46:02;4.60;;;1.60;;
24030;SDS011;12240;51.142;22.486;2023-07-31T14:48:30;4.20;;;1.40;;
24030;SDS011;12240;51.142;22.486;2023-07-31T14:50:59;2.78;;;1.35;;
24030;SDS011;12240;51.142;22.486;2023-07-31T14:53:28;4.93;;;1.50;;
24030;SDS011;12240;51.142;22.486;2023-07-31T14:55:56;4.93;;;1.48;;
24030;SDS011;12240;51.142;22.486;2023-07-31T14:58:25;2.90;;;1.48;;
24030;SDS011;12240;51.142;22.486;2023-07-31T15:00:53;2.50;;;1.20;;
24030;SDS011;12240;51.142;22.486;2023-07-31T15:03:21;3.60;;;1.55;;
24030;SDS011;12240;51.142;22.486;2023-07-31T15:05:49;4.15;;;1.48;;
24030;SDS011;12240;51.142;22.486;2023-07-31T15:08:18;3.20;;;1.05;;
24030;SDS011;12240;51.142;22.486;2023-07-31T15:10:46;4.03;;;1.80;;